Time;durP1;ratioP1;P1;durP2;ratioP2;P2;SDS_P1;SDS_P2;PMS_P1;PMS_P2;Temp;Humidity;BMP_temperature;BMP_pressure;BME280_temperature;BME280_humidity;BME280_pressure;Samples;Min_cycle;Max_cycle;Signal;HPM_P1;HPM_P2
2022/08/13 00:01:56;;;;;;;0.60;0.60;;;22.20;44.10;;;;;;6275452;22;20031;-74
2022/08/13 00:04:25;;;;;;;0.50;0.50;;;22.20;44.20;;;;;;6275801;22;20019;-74
2022/08/13 00:07:08;;;;;;;0.52;0.52;;;22.20;44.30;;;;;;6273684;22;20444;-75
2022/08/13 00:09:38;;;;;;;0.50;0.50;;;22.10;44.20;;;;;;6275415;22;20095;-75
2022/08/13 00:14:50;;;;;;;0.50;0.50;;;22.10;44.30;;;;;;6275582;22;20097;-75
2022/08/13 00:17:17;;;;;;;0.32;0.32;;;22.00;44.40;;;;;;6248722;22;20011;-75
2022/08/13 00:19:47;;;;;;;0.40;0.40;;;22.00;44.50;;;;;;6276278;22;20023;-75
2022/08/13 00:22:14;;;;;;;0.50;0.50;;;22.00;44.60;;;;;;6276116;22;20022;-75
2022/08/13 00:24:40;;;;;;;0.50;0.50;;;21.90;44.50;;;;;;6275515;22;20031;-75
2022/08/13 00:27:06;;;;;;;0.50;0.47;;;22.00;44.60;;;;;;6275478;22;20436;-74
2022/08/13 00:29:32;;;;;;;0.35;0.35;;;21.90;44.60;;;;;;6275568;22;20039;-75
2022/08/13 00:31:58;;;;;;;0.45;0.40;;;21.90;44.60;;;;;;6275499;22;20012;-74
2022/08/13 00:34:27;;;;;;;0.47;0.40;;;21.90;44.50;;;;;;6248712;22;20014;-75
2022/08/13 00:36:53;;;;;;;0.40;0.40;;;21.90;45.00;;;;;;6275675;22;20014;-75
2022/08/13 00:39:19;;;;;;;0.38;0.38;;;21.90;44.60;;;;;;6248638;22;20423;-75
2022/08/13 00:41:46;;;;;;;0.50;0.50;;;21.80;44.70;;;;;;6276437;22;20038;-74
2022/08/13 00:44:16;;;;;;;0.50;0.50;;;21.80;44.70;;;;;;6275684;22;20012;-75
2022/08/13 00:46:43;;;;;;;0.50;0.50;;;21.80;44.80;;;;;;6275674;22;20008;-74
2022/08/13 00:49:12;;;;;;;0.50;0.50;;;21.70;44.80;;;;;;6248399;22;20008;-75
2022/08/13 00:51:40;;;;;;;0.40;0.40;;;21.70;44.80;;;;;;6242723;22;20428;-75
2022/08/13 00:54:10;;;;;;;0.40;0.40;;;21.70;44.90;;;;;;6275335;22;20057;-74
2022/08/13 00:56:36;;;;;;;;;;;21.60;44.90;;;;;;6275738;22;20007;-75
2022/08/13 00:59:10;;;;;;;0.30;0.30;;;21.50;44.90;;;;;;6248283;22;20337;-75
2022/08/13 01:01:39;;;;;;;0.30;0.30;;;21.60;45.00;;;;;;6275379;22;20393;-75
2022/08/13 01:04:07;;;;;;;0.57;0.40;;;21.50;45.00;;;;;;6275430;22;20014;-74
2022/08/13 01:06:35;;;;;;;0.40;0.40;;;21.50;45.10;;;;;;6275810;22;20469;-74
2022/08/13 01:09:03;;;;;;;0.63;0.40;;;21.50;45.10;;;;;;6275470;22;20015;-75
2022/08/13 01:11:32;;;;;;;0.30;0.30;;;21.50;45.80;;;;;;6275405;22;20444;-75
2022/08/13 01:14:03;;;;;;;0.68;0.38;;;21.50;45.20;;;;;;6273166;22;20012;-75
2022/08/13 01:16:36;;;;;;;;;;;21.40;45.30;;;;;;6274059;22;20004;-75
2022/08/13 01:19:06;;;;;;;0.30;0.30;;;21.40;45.30;;;;;;6275132;22;20278;-75
2022/08/13 01:21:36;;;;;;;;;;;21.30;45.30;;;;;;6276213;22;20050;-75
2022/08/13 01:24:02;;;;;;;0.38;0.38;;;21.30;45.30;;;;;;6275158;22;20304;-75
2022/08/13 01:26:32;;;;;;;0.40;0.40;;;21.30;45.30;;;;;;6249040;22;20011;-74
2022/08/13 01:29:04;;;;;;;;;;;21.30;45.30;;;;;;6276418;22;20022;-75
2022/08/13 01:31:32;;;;;;;0.40;0.40;;;21.30;45.30;;;;;;6276084;22;19907;-75
2022/08/13 01:34:00;;;;;;;0.50;0.50;;;21.30;45.30;;;;;;6272551;22;20427;-75
2022/08/13 01:36:27;;;;;;;0.38;0.38;;;21.20;45.40;;;;;;6275659;22;20090;-75
2022/08/13 01:38:57;;;;;;;0.40;0.40;;;21.20;45.40;;;;;;6223780;22;20015;-74
2022/08/13 01:41:25;;;;;;;1.27;0.50;;;21.10;45.50;;;;;;6275954;22;20065;-74
2022/08/13 01:43:52;;;;;;;0.32;0.32;;;21.20;45.60;;;;;;6275080;22;20019;-75
2022/08/13 01:46:18;;;;;;;0.65;0.50;;;21.10;45.60;;;;;;6249022;22;20003;-75
2022/08/13 01:51:24;;;;;;;0.63;0.40;;;21.00;45.70;;;;;;6249699;22;20028;-74
2022/08/13 01:53:58;;;;;;;0.52;0.52;;;21.00;45.80;;;;;;6275610;22;20039;-75
2022/08/13 01:56:25;;;;;;;0.40;0.40;;;21.00;45.90;;;;;;6275591;22;20424;-75
2022/08/13 01:58:56;;;;;;;0.38;0.38;;;20.90;45.90;;;;;;6248199;22;20016;-74
2022/08/13 02:01:25;;;;;;;0.45;0.45;;;20.90;46.00;;;;;;6248177;22;20018;-74
2022/08/13 02:03:52;;;;;;;0.30;0.30;;;20.90;46.10;;;;;;6275024;22;20374;-75
2022/08/13 02:06:34;;;;;;;0.40;0.40;;;20.80;46.10;;;;;;6222941;22;20378;-75
2022/08/13 02:09:04;;;;;;;0.52;0.50;;;20.80;46.20;;;;;;6244544;22;20505;-75
2022/08/13 02:11:34;;;;;;;0.50;0.50;;;20.80;46.10;;;;;;6248620;22;20003;-75
2022/08/13 02:14:03;;;;;;;0.47;0.40;;;20.80;46.10;;;;;;6274976;22;20031;-75
2022/08/13 02:16:30;;;;;;;0.30;0.30;;;20.70;46.20;;;;;;6275371;22;20336;-74
2022/08/13 02:18:57;;;;;;;0.30;0.30;;;20.70;46.20;;;;;;6275306;22;20008;-74
2022/08/13 02:21:25;;;;;;;0.30;0.30;;;20.70;46.20;;;;;;6275320;22;20042;-74
2022/08/13 02:23:56;;;;;;;0.40;0.40;;;20.70;46.30;;;;;;6275342;22;20018;-74
2022/08/13 02:26:23;;;;;;;;;;;20.70;46.40;;;;;;6247188;22;20007;-74
2022/08/13 02:28:50;;;;;;;0.40;0.40;;;20.60;46.30;;;;;;6275094;22;19911;-74
2022/08/13 02:31:18;;;;;;;0.57;0.35;;;20.70;46.40;;;;;;6248105;22;20007;-74
2022/08/13 02:33:45;;;;;;;0.40;0.40;;;20.70;46.40;;;;;;6275401;22;20089;-74
2022/08/13 02:36:11;;;;;;;0.40;0.30;;;20.70;46.40;;;;;;6275643;22;20030;-75
2022/08/13 02:38:38;;;;;;;0.45;0.45;;;20.60;46.40;;;;;;6248592;22;20447;-74
2022/08/13 02:43:47;;;;;;;0.40;0.40;;;20.60;46.60;;;;;;6274876;22;20106;-74
2022/08/13 02:46:15;;;;;;;0.45;0.45;;;20.60;46.60;;;;;;6275332;22;20041;-75
2022/08/13 02:48:42;;;;;;;0.73;0.40;;;20.50;46.70;;;;;;6247972;22;20447;-74
2022/08/13 02:51:11;;;;;;;0.30;0.30;;;20.50;46.70;;;;;;6274902;22;20137;-74
2022/08/13 02:53:39;;;;;;;0.32;0.32;;;20.50;46.70;;;;;;6275204;22;20428;-74
2022/08/13 02:56:08;;;;;;;0.30;0.30;;;20.50;46.70;;;;;;6248017;22;20003;-74
2022/08/13 02:58:36;;;;;;;0.30;0.30;;;20.50;46.80;;;;;;6274730;22;20014;-74
2022/08/13 03:01:03;;;;;;;0.35;0.30;;;20.50;46.80;;;;;;6274785;22;20455;-74
2022/08/13 03:03:31;;;;;;;0.25;0.25;;;20.50;46.90;;;;;;6275476;22;20431;-74
2022/08/13 03:05:57;;;;;;;0.30;0.30;;;20.50;46.90;;;;;;6274906;22;20309;-74
2022/08/13 03:08:23;;;;;;;0.30;0.30;;;20.50;46.90;;;;;;6248543;22;20316;-75
2022/08/13 03:10:53;;;;;;;0.40;0.40;;;20.40;47.00;;;;;;6275172;22;20004;-74
2022/08/13 03:13:23;;;;;;;0.43;0.40;;;20.40;47.00;;;;;;6248378;22;20007;-75
2022/08/13 03:15:52;;;;;;;0.30;0.30;;;20.40;47.00;;;;;;6275255;22;20440;-74
2022/08/13 03:18:18;;;;;;;0.30;0.30;;;20.30;47.00;;;;;;6275843;22;20352;-74
2022/08/13 03:20:44;;;;;;;0.43;0.43;;;20.30;47.10;;;;;;6275802;22;20007;-74
2022/08/13 03:23:10;;;;;;;0.55;0.45;;;20.30;47.20;;;;;;6248794;22;20448;-74
2022/08/13 03:25:37;;;;;;;0.30;0.30;;;20.30;47.50;;;;;;6276220;22;20011;-74
2022/08/13 03:28:04;;;;;;;0.40;0.40;;;20.20;47.30;;;;;;6276300;22;20414;-74
2022/08/13 03:30:34;;;;;;;0.30;0.30;;;20.30;47.40;;;;;;6275938;22;20014;-74
2022/08/13 03:33:05;;;;;;;0.40;0.40;;;20.20;47.40;;;;;;6276189;22;20038;-74
2022/08/13 03:35:31;;;;;;;0.30;0.30;;;20.20;48.10;;;;;;6276092;22;20008;-74
2022/08/13 03:37:57;;;;;;;0.38;0.38;;;20.10;47.50;;;;;;6276037;22;20501;-74
2022/08/13 03:41:00;;;;;;;0.40;0.40;;;20.10;47.50;;;;;;6275798;22;20007;-74
2022/08/13 03:43:12;;;;;;;0.45;0.35;;;20.10;47.60;;;;;;6275640;22;20016;-74
2022/08/13 03:45:38;;;;;;;0.82;0.40;;;20.00;47.60;;;;;;6249007;22;20015;-74
2022/08/13 03:48:06;;;;;;;0.40;0.40;;;20.20;48.30;;;;;;6248331;22;20042;-74
2022/08/13 03:50:32;;;;;;;0.30;0.30;;;20.00;47.70;;;;;;6275812;22;20390;-74
2022/08/13 03:53:03;;;;;;;0.40;0.40;;;20.00;47.80;;;;;;6275918;22;20107;-74
2022/08/13 03:55:30;;;;;;;0.40;0.40;;;20.00;47.80;;;;;;6243856;22;20038;-74
2022/08/13 03:57:57;;;;;;;0.40;0.40;;;20.00;47.80;;;;;;6276033;22;20018;-74
2022/08/13 04:00:23;;;;;;;0.40;0.40;;;20.00;47.80;;;;;;6249770;22;20038;-74
2022/08/13 04:02:50;;;;;;;0.32;0.32;;;20.00;47.80;;;;;;6275907;22;20065;-74
2022/08/13 04:05:17;;;;;;;0.30;0.30;;;20.00;48.40;;;;;;6276085;22;20007;-74
2022/08/13 04:07:44;;;;;;;0.43;0.40;;;20.00;47.80;;;;;;6249159;22;20007;-74
2022/08/13 04:10:11;;;;;;;0.95;0.30;;;20.00;47.80;;;;;;6276740;22;20004;-74
2022/08/13 04:12:38;;;;;;;0.30;0.30;;;19.90;47.80;;;;;;6276090;22;20011;-75
2022/08/13 04:15:06;;;;;;;0.38;0.38;;;19.90;47.80;;;;;;6275808;22;20057;-74
2022/08/13 04:17:36;;;;;;;0.60;0.30;;;19.90;47.90;;;;;;6249535;22;20486;-74
2022/08/13 04:20:05;;;;;;;0.30;0.30;;;19.90;47.90;;;;;;6247310;22;20382;-74
2022/08/13 04:22:30;;;;;;;0.63;0.50;;;19.90;47.90;;;;;;6246297;22;20058;-74
2022/08/13 04:24:58;;;;;;;0.28;0.28;;;19.90;48.00;;;;;;6276093;22;20035;-74
2022/08/13 04:27:25;;;;;;;0.30;0.30;;;19.90;48.00;;;;;;6276033;22;20039;-74
2022/08/13 04:29:51;;;;;;;0.35;0.30;;;19.80;48.00;;;;;;6276030;22;20008;-74
2022/08/13 04:32:20;;;;;;;0.40;0.40;;;19.90;48.10;;;;;;6275851;22;20004;-74
2022/08/13 04:34:46;;;;;;;0.30;0.30;;;19.90;48.10;;;;;;6276020;22;19999;-74
2022/08/13 04:37:11;;;;;;;0.38;0.38;;;19.90;48.10;;;;;;6249330;22;20058;-74
2022/08/13 04:39:37;;;;;;;0.52;0.40;;;19.80;48.00;;;;;;6275681;22;20008;-74
2022/08/13 04:42:06;;;;;;;0.30;0.30;;;19.80;48.10;;;;;;6276271;22;20008;-74
2022/08/13 04:44:31;;;;;;;0.30;0.30;;;19.80;48.10;;;;;;6275759;22;20452;-74
2022/08/13 04:46:57;;;;;;;0.30;0.30;;;19.90;48.20;;;;;;6275650;22;20012;-74
2022/08/13 04:49:23;;;;;;;0.35;0.35;;;19.80;48.10;;;;;;6248263;22;20051;-74
2022/08/13 04:51:49;;;;;;;0.30;0.30;;;19.80;48.10;;;;;;6248303;22;20439;-74
2022/08/13 04:54:14;;;;;;;0.28;0.28;;;19.80;48.10;;;;;;6248952;22;20004;-74
2022/08/13 04:56:40;;;;;;;0.32;0.32;;;19.80;48.10;;;;;;6223104;22;20015;-74
2022/08/13 04:59:06;;;;;;;0.38;0.20;;;19.80;48.20;;;;;;6276070;22;20087;-74
2022/08/13 05:01:32;;;;;;;0.43;0.43;;;19.80;48.20;;;;;;6276138;22;20008;-74
2022/08/13 05:03:57;;;;;;;0.32;0.32;;;19.90;48.20;;;;;;6276173;22;20015;-74
2022/08/13 05:06:23;;;;;;;0.40;0.40;;;19.90;48.20;;;;;;6275648;22;20044;-74
2022/08/13 05:08:50;;;;;;;0.40;0.40;;;19.90;48.20;;;;;;6249189;22;20462;-74
2022/08/13 05:11:17;;;;;;;0.30;0.30;;;19.90;48.20;;;;;;6248303;22;20094;-74
2022/08/13 05:13:45;;;;;;;0.30;0.30;;;19.90;48.10;;;;;;6275154;22;20444;-74
2022/08/13 05:16:13;;;;;;;0.30;0.30;;;20.00;48.10;;;;;;6275411;22;20004;-74
2022/08/13 05:21:16;;;;;;;0.43;0.43;;;20.00;48.10;;;;;;6275139;22;20019;-74
2022/08/13 05:23:43;;;;;;;0.45;0.40;;;20.00;48.10;;;;;;6248372;22;20007;-74
2022/08/13 05:26:10;;;;;;;0.40;0.40;;;20.10;48.10;;;;;;6275935;22;20038;-74
2022/08/13 05:28:37;;;;;;;0.30;0.30;;;20.10;48.10;;;;;;6243292;22;20087;-74
2022/08/13 05:31:03;;;;;;;0.30;0.30;;;20.10;48.10;;;;;;6275610;22;20431;-74
2022/08/13 05:33:31;;;;;;;0.35;0.30;;;20.10;48.10;;;;;;6248669;22;20007;-74
2022/08/13 05:35:59;;;;;;;0.43;0.40;;;20.20;48.20;;;;;;6275633;22;20030;-74
2022/08/13 05:38:27;;;;;;;0.30;0.30;;;20.20;48.20;;;;;;6275999;22;20011;-74
2022/08/13 05:40:56;;;;;;;0.40;0.40;;;20.20;48.20;;;;;;6272658;22;20046;-74
2022/08/13 05:43:24;;;;;;;0.30;0.30;;;20.20;48.30;;;;;;6275923;22;20496;-74
2022/08/13 05:45:57;;;;;;;0.30;0.30;;;20.20;48.30;;;;;;6276433;22;20003;-75
2022/08/13 05:48:28;;;;;;;0.30;0.30;;;20.10;48.30;;;;;;6275589;22;20008;-74
2022/08/13 05:50:58;;;;;;;;;;;20.20;48.30;;;;;;6273272;22;20470;-74
2022/08/13 05:53:24;;;;;;;0.40;0.40;;;20.20;48.20;;;;;;6272688;22;19911;-75
2022/08/13 05:55:50;;;;;;;0.20;0.20;;;20.20;48.20;;;;;;6275545;22;20073;-74
2022/08/13 05:58:16;;;;;;;0.38;0.38;;;20.20;48.30;;;;;;6275935;22;20011;-75
2022/08/13 06:03:24;;;;;;;0.45;0.43;;;20.30;48.30;;;;;;6251066;22;20035;-74
2022/08/13 06:05:53;;;;;;;0.30;0.30;;;20.40;48.30;;;;;;6275628;22;20038;-74
2022/08/13 06:08:23;;;;;;;0.30;0.30;;;20.30;48.20;;;;;;6275180;22;20012;-75
2022/08/13 06:10:49;;;;;;;0.30;0.30;;;20.40;48.30;;;;;;6248759;22;20008;-75
2022/08/13 06:13:16;;;;;;;0.50;0.50;;;20.40;48.30;;;;;;6275434;22;20505;-74
2022/08/13 06:15:43;;;;;;;0.30;0.30;;;20.40;48.30;;;;;;6276081;22;20065;-74
2022/08/13 06:18:11;;;;;;;0.30;0.30;;;20.50;48.30;;;;;;6275610;22;20063;-74
2022/08/13 06:20:41;;;;;;;0.43;0.43;;;20.60;48.30;;;;;;6275269;22;20017;-74
2022/08/13 06:23:12;;;;;;;0.30;0.30;;;20.60;48.20;;;;;;6275479;22;20039;-74
2022/08/13 06:25:38;;;;;;;0.50;0.47;;;20.60;48.20;;;;;;6275283;22;20104;-74
2022/08/13 06:28:10;;;;;;;0.50;0.50;;;20.60;48.10;;;;;;6275115;22;20411;-74
2022/08/13 06:30:38;;;;;;;0.30;0.30;;;20.70;48.20;;;;;;6275695;22;20008;-74
2022/08/13 06:33:04;;;;;;;0.30;0.30;;;20.70;48.20;;;;;;6275401;22;20004;-75
2022/08/13 06:35:31;;;;;;;0.32;0.32;;;20.80;48.20;;;;;;6275965;22;20014;-74
2022/08/13 06:37:57;;;;;;;0.30;0.30;;;20.80;48.20;;;;;;6248396;22;20015;-74
2022/08/13 06:40:23;;;;;;;0.30;0.30;;;20.80;48.20;;;;;;6275493;22;20041;-74
2022/08/13 06:42:51;;;;;;;0.40;0.40;;;20.80;48.20;;;;;;6275476;22;20058;-74
2022/08/13 06:45:20;;;;;;;0.35;0.30;;;20.80;48.30;;;;;;6275301;22;20427;-74
2022/08/13 06:47:48;;;;;;;0.35;0.35;;;20.90;48.30;;;;;;6275880;22;20011;-74
2022/08/13 06:50:14;;;;;;;0.25;0.25;;;20.90;48.30;;;;;;6242687;22;20058;-74
2022/08/13 06:52:40;;;;;;;0.35;0.35;;;20.90;48.30;;;;;;6274312;22;20011;-74
2022/08/13 06:55:07;;;;;;;0.40;0.40;;;21.00;48.20;;;;;;6275321;22;20007;-74
2022/08/13 06:57:36;;;;;;;0.47;0.47;;;21.00;48.30;;;;;;6275381;22;20007;-75
2022/08/13 07:00:07;;;;;;;0.40;0.40;;;21.00;48.20;;;;;;6245480;22;20003;-74
2022/08/13 07:02:34;;;;;;;;;;;21.10;48.30;;;;;;6248617;22;20034;-74
2022/08/13 07:05:00;;;;;;;0.40;0.40;;;21.10;48.30;;;;;;6275794;22;19914;-74
2022/08/13 07:07:27;;;;;;;0.40;0.40;;;21.20;48.30;;;;;;6275599;22;20007;-75
2022/08/13 07:09:54;;;;;;;0.30;0.30;;;21.20;48.20;;;;;;6274964;22;20503;-74
2022/08/13 07:12:20;;;;;;;0.30;0.30;;;21.20;48.20;;;;;;6248712;22;20072;-74
2022/08/13 07:14:46;;;;;;;0.30;0.30;;;21.30;48.20;;;;;;6248531;22;20012;-75
2022/08/13 07:17:12;;;;;;;0.43;0.40;;;21.30;48.10;;;;;;6275461;22;20014;-75
2022/08/13 07:19:38;;;;;;;0.40;0.40;;;21.40;48.10;;;;;;6275111;22;20049;-75
2022/08/13 07:22:05;;;;;;;0.30;0.30;;;21.50;48.10;;;;;;6275160;22;20081;-75
2022/08/13 07:24:31;;;;;;;0.30;0.30;;;21.60;48.10;;;;;;6274982;22;20038;-75
2022/08/13 07:27:04;;;;;;;0.40;0.40;;;21.60;48.10;;;;;;6275498;22;20023;-75
2022/08/13 07:29:34;;;;;;;0.30;0.30;;;21.70;48.10;;;;;;6274929;22;20012;-75
2022/08/13 07:32:02;;;;;;;0.40;0.40;;;21.80;48.00;;;;;;6248866;22;20109;-74
2022/08/13 07:34:32;;;;;;;0.30;0.30;;;21.80;47.90;;;;;;6275255;22;20015;-74
2022/08/13 07:36:59;;;;;;;0.30;0.30;;;21.90;47.90;;;;;;6274819;22;20016;-75
2022/08/13 07:39:26;;;;;;;0.40;0.40;;;22.00;47.80;;;;;;6275509;22;20035;-75
2022/08/13 07:41:54;;;;;;;0.43;0.43;;;22.00;47.70;;;;;;6274935;22;20035;-75
2022/08/13 07:44:21;;;;;;;0.68;0.40;;;22.10;47.80;;;;;;6274883;22;20015;-75
2022/08/13 07:46:50;;;;;;;0.50;0.40;;;22.20;47.70;;;;;;6247687;22;20011;-75
2022/08/13 07:49:18;;;;;;;0.30;0.30;;;22.30;48.30;;;;;;6274858;22;20015;-74
2022/08/13 07:51:46;;;;;;;0.60;0.50;;;22.40;47.60;;;;;;6274817;22;20008;-75
2022/08/13 07:54:12;;;;;;;0.50;0.40;;;22.60;47.50;;;;;;6247927;22;20015;-75
2022/08/13 07:56:39;;;;;;;0.40;0.40;;;22.70;47.40;;;;;;6274912;22;20015;-75
2022/08/13 07:59:09;;;;;;;0.30;0.30;;;22.80;47.30;;;;;;6274676;22;20008;-75
2022/08/13 08:01:52;;;;;;;0.50;0.50;;;23.00;47.10;;;;;;6247766;22;20440;-75
2022/08/13 08:04:20;;;;;;;0.30;0.30;;;23.20;46.90;;;;;;6274767;22;20019;-75
2022/08/13 08:06:48;;;;;;;0.82;0.30;;;23.50;46.70;;;;;;6276125;22;20012;-75
2022/08/13 08:09:18;;;;;;;0.32;0.32;;;23.70;46.50;;;;;;6276424;22;20034;-75
2022/08/13 08:14:27;;;;;;;0.30;0.30;;;24.10;46.10;;;;;;6275918;22;20015;-75
2022/08/13 08:16:54;;;;;;;0.32;0.32;;;24.40;45.90;;;;;;6248646;22;20012;-75
2022/08/13 08:19:20;;;;;;;0.40;0.40;;;24.70;45.80;;;;;;6249362;22;20019;-75
2022/08/13 08:21:47;;;;;;;0.40;0.40;;;24.90;45.70;;;;;;6275893;22;20069;-74
2022/08/13 08:24:15;;;;;;;0.30;0.30;;;25.10;45.50;;;;;;6275924;22;20007;-75
2022/08/13 08:26:46;;;;;;;0.38;0.38;;;25.30;45.40;;;;;;6248606;22;20348;-75
2022/08/13 08:29:13;;;;;;;0.40;0.40;;;25.60;45.40;;;;;;6273966;22;20015;-75
2022/08/13 08:31:40;;;;;;;0.40;0.40;;;25.80;45.10;;;;;;6276186;22;20004;-75
2022/08/13 08:34:07;;;;;;;0.40;0.40;;;26.10;45.00;;;;;;6275750;22;20035;-75
2022/08/13 08:36:38;;;;;;;0.68;0.68;;;26.20;44.90;;;;;;6249903;22;20011;-75
2022/08/13 08:44:24;;;;;;;0.38;0.32;;;26.90;44.60;;;;;;6275897;22;20447;-75
2022/08/13 08:46:56;;;;;;;0.40;0.40;;;27.20;44.50;;;;;;6276673;22;20024;-75
2022/08/13 08:49:24;;;;;;;0.40;0.40;;;27.30;44.30;;;;;;6275758;22;20011;-75
2022/08/13 08:51:51;;;;;;;0.40;0.40;;;27.50;44.30;;;;;;6276254;22;20038;-74
2022/08/13 08:54:18;;;;;;;0.40;0.40;;;27.70;44.20;;;;;;6248778;22;20011;-75
2022/08/13 08:56:46;;;;;;;0.40;0.40;;;27.80;44.10;;;;;;6276007;22;20019;-75
2022/08/13 08:59:13;;;;;;;0.63;0.43;;;28.00;44.00;;;;;;6272854;22;20015;-74
2022/08/13 09:01:40;;;;;;;0.40;0.40;;;28.20;43.90;;;;;;6275683;22;20447;-75
2022/08/13 09:04:08;;;;;;;0.50;0.40;;;28.40;43.70;;;;;;6275697;22;20105;-75
2022/08/13 09:06:34;;;;;;;0.30;0.30;;;28.60;43.60;;;;;;6275768;22;20008;-75
2022/08/13 09:09:02;;;;;;;0.40;0.40;;;28.70;43.60;;;;;;6249540;22;20012;-75
2022/08/13 09:11:34;;;;;;;0.73;0.50;;;28.80;43.60;;;;;;6272991;22;20083;-75
2022/08/13 09:14:02;;;;;;;0.40;0.40;;;28.90;43.50;;;;;;6276631;22;20007;-75
2022/08/13 09:16:29;;;;;;;0.40;0.40;;;29.10;43.50;;;;;;6275356;22;20095;-75
2022/08/13 09:18:56;;;;;;;0.47;0.40;;;29.20;43.30;;;;;;6275504;22;20011;-75
2022/08/13 09:21:22;;;;;;;0.30;0.30;;;29.30;43.30;;;;;;6275943;22;20008;-75
2022/08/13 09:23:48;;;;;;;0.40;0.40;;;29.40;43.40;;;;;;6276421;22;20011;-75
2022/08/13 09:26:17;;;;;;;0.40;0.40;;;29.50;43.30;;;;;;6275786;22;20012;-75
2022/08/13 09:28:43;;;;;;;0.50;0.43;;;29.50;43.20;;;;;;6275437;22;20012;-75
2022/08/13 09:31:10;;;;;;;0.40;0.40;;;29.60;43.20;;;;;;6275934;22;20087;-75
2022/08/13 09:33:39;;;;;;;0.50;0.50;;;29.70;43.20;;;;;;6275457;22;20090;-75
2022/08/13 09:36:09;;;;;;;0.40;0.40;;;29.70;43.20;;;;;;6223794;22;20008;-75
2022/08/13 09:38:36;;;;;;;0.30;0.30;;;29.80;43.20;;;;;;6274133;22;20022;-75
2022/08/13 09:41:17;;;;;;;0.40;0.40;;;29.90;43.20;;;;;;6275480;22;20012;-75
2022/08/13 09:43:45;;;;;;;0.30;0.30;;;29.90;43.10;;;;;;6275391;22;20012;-75
2022/08/13 09:46:12;;;;;;;0.40;0.40;;;30.00;43.70;;;;;;6275604;22;20390;-75
2022/08/13 09:48:38;;;;;;;0.40;0.40;;;30.00;43.10;;;;;;6248256;22;20012;-75
2022/08/13 09:51:08;;;;;;;0.32;0.32;;;30.10;43.10;;;;;;6275664;22;20458;-75
2022/08/13 09:53:34;;;;;;;0.30;0.30;;;30.10;43.10;;;;;;6273155;22;20012;-75
2022/08/13 09:56:00;;;;;;;0.43;0.43;;;30.20;42.90;;;;;;6275505;22;20150;-75
2022/08/13 09:58:25;;;;;;;0.40;0.40;;;30.40;42.70;;;;;;6248504;22;20085;-75
2022/08/13 10:00:52;;;;;;;0.43;0.43;;;30.50;42.70;;;;;;6249507;22;20031;-75
2022/08/13 10:03:18;;;;;;;0.30;0.30;;;30.50;42.70;;;;;;6245528;22;20332;-75
2022/08/13 10:05:47;;;;;;;0.40;0.40;;;30.60;42.50;;;;;;6275558;22;20446;-75
2022/08/13 10:08:17;;;;;;;0.30;0.30;;;30.70;42.40;;;;;;6275645;22;20128;-75
2022/08/13 10:10:44;;;;;;;0.35;0.35;;;30.70;42.30;;;;;;6276107;22;20011;-75
2022/08/13 10:13:10;;;;;;;0.30;0.30;;;30.80;42.40;;;;;;6248424;22;20448;-75
2022/08/13 10:15:38;;;;;;;0.40;0.40;;;30.70;42.30;;;;;;6248910;22;20007;-75
2022/08/13 10:18:04;;;;;;;0.50;0.40;;;30.80;42.20;;;;;;6275436;22;20099;-75
2022/08/13 10:20:36;;;;;;;0.47;0.47;;;30.70;42.20;;;;;;6248314;22;20103;-75
2022/08/13 10:23:04;;;;;;;0.43;0.43;;;30.80;42.10;;;;;;6224723;22;20081;-75
2022/08/13 10:25:30;;;;;;;0.52;0.52;;;30.90;42.10;;;;;;6276051;22;20020;-75
2022/08/13 10:27:57;;;;;;;0.45;0.45;;;30.90;42.00;;;;;;6275090;22;20042;-75
2022/08/13 10:30:26;;;;;;;0.45;0.45;;;31.00;42.00;;;;;;6275629;22;20042;-75
2022/08/13 10:32:55;;;;;;;0.50;0.50;;;30.90;41.90;;;;;;6275348;22;20428;-75
2022/08/13 10:35:24;;;;;;;0.30;0.30;;;31.00;41.90;;;;;;6275546;22;20427;-75
2022/08/13 10:37:54;;;;;;;0.60;0.43;;;31.10;41.80;;;;;;6275403;22;20008;-75
2022/08/13 10:40:20;;;;;;;0.60;0.40;;;31.00;41.60;;;;;;6275441;22;20003;-75
2022/08/13 10:42:46;;;;;;;0.60;0.50;;;31.10;41.70;;;;;;6275385;22;20065;-75
2022/08/13 10:45:13;;;;;;;0.45;0.45;;;31.10;41.60;;;;;;6275162;22;20011;-75
2022/08/13 10:47:48;;;;;;;0.50;0.50;;;31.10;41.50;;;;;;6275481;22;20003;-75
2022/08/13 10:50:16;;;;;;;0.40;0.40;;;31.10;41.50;;;;;;6274127;22;20019;-75
2022/08/13 10:52:42;;;;;;;0.50;0.50;;;31.10;41.40;;;;;;6275963;22;20420;-73
2022/08/13 10:55:11;;;;;;;0.40;0.40;;;31.10;41.30;;;;;;6272441;22;20004;-75
2022/08/13 10:57:39;;;;;;;0.40;0.40;;;31.10;41.20;;;;;;6275484;22;20004;-75
2022/08/13 11:00:07;;;;;;;0.55;0.55;;;31.20;41.10;;;;;;6275346;22;20011;-75
2022/08/13 11:02:33;;;;;;;0.40;0.40;;;31.30;41.00;;;;;;6275363;22;20026;-75
2022/08/13 11:05:00;;;;;;;0.47;0.47;;;31.30;40.90;;;;;;6275520;22;20082;-74
2022/08/13 11:07:26;;;;;;;0.30;0.30;;;31.30;40.70;;;;;;6274996;22;20094;-75
2022/08/13 11:09:59;;;;;;;0.40;0.40;;;31.40;40.70;;;;;;6275203;22;20091;-75
2022/08/13 11:12:25;;;;;;;0.40;0.40;;;31.50;40.60;;;;;;6245299;22;20031;-72
2022/08/13 11:14:51;;;;;;;0.40;0.40;;;31.50;40.40;;;;;;6274931;22;20034;-75
2022/08/13 11:17:17;;;;;;;0.47;0.47;;;31.50;40.20;;;;;;6274909;22;20007;-74
2022/08/13 11:19:46;;;;;;;0.43;0.43;;;31.60;40.30;;;;;;6275257;22;20012;-75
2022/08/13 11:22:12;;;;;;;0.43;0.43;;;31.50;39.90;;;;;;6275298;22;20012;-75
2022/08/13 11:24:38;;;;;;;0.40;0.40;;;31.60;39.90;;;;;;6275564;22;20014;-75
2022/08/13 11:27:05;;;;;;;0.40;0.40;;;31.50;39.70;;;;;;6275090;22;20011;-74
2022/08/13 11:29:31;;;;;;;0.50;0.50;;;31.50;39.60;;;;;;6274768;22;20566;-74
2022/08/13 11:31:57;;;;;;;0.40;0.40;;;31.60;39.60;;;;;;6248148;22;20039;-74
2022/08/13 11:34:25;;;;;;;1.42;0.40;;;31.50;39.50;;;;;;6248087;22;20066;-75
2022/08/13 11:36:51;;;;;;;0.40;0.40;;;31.50;39.40;;;;;;6274708;22;20024;-75
2022/08/13 11:39:17;;;;;;;0.40;0.40;;;31.50;39.30;;;;;;6275096;22;20012;-73
2022/08/13 11:41:43;;;;;;;0.47;0.47;;;31.50;39.20;;;;;;6249363;22;20022;-74
2022/08/13 11:44:09;;;;;;;0.50;0.50;;;31.60;39.10;;;;;;6248949;22;20043;-74
2022/08/13 11:46:35;;;;;;;0.50;0.50;;;31.60;39.10;;;;;;6276187;22;20003;-74
2022/08/13 11:49:01;;;;;;;0.50;0.50;;;31.50;39.00;;;;;;6276064;22;20012;-74
2022/08/13 11:51:27;;;;;;;0.73;0.50;;;31.60;39.00;;;;;;6250045;22;20438;-74
2022/08/13 11:53:53;;;;;;;0.40;0.40;;;31.60;38.90;;;;;;6276261;22;20011;-74
2022/08/13 11:56:18;;;;;;;0.30;0.30;;;31.60;38.90;;;;;;6276461;22;20008;-74
2022/08/13 11:58:44;;;;;;;0.50;0.50;;;31.70;38.70;;;;;;6276590;22;20462;-74
2022/08/13 12:01:11;;;;;;;0.47;0.47;;;31.70;38.60;;;;;;6276025;22;20042;-74
2022/08/13 12:03:39;;;;;;;0.30;0.30;;;31.80;38.50;;;;;;6276712;22;20014;-74
2022/08/13 12:06:06;;;;;;;0.40;0.40;;;31.80;38.40;;;;;;6276744;22;20031;-73
2022/08/13 12:08:32;;;;;;;0.40;0.40;;;31.80;38.90;;;;;;6275769;22;20016;-74
2022/08/13 12:10:57;;;;;;;0.50;0.50;;;31.70;38.30;;;;;;6276597;22;20011;-74
2022/08/13 12:13:23;;;;;;;0.40;0.40;;;31.70;38.40;;;;;;6275868;22;20004;-74
2022/08/13 12:15:49;;;;;;;0.30;0.30;;;31.70;38.40;;;;;;6249186;22;20003;-73
2022/08/13 12:18:17;;;;;;;0.32;0.32;;;31.80;38.30;;;;;;6276182;22;20018;-74
2022/08/13 12:20:44;;;;;;;0.80;0.45;;;31.80;38.10;;;;;;6276689;22;20007;-74
2022/08/13 12:23:09;;;;;;;0.40;0.40;;;31.90;38.10;;;;;;6276450;22;20018;-74
2022/08/13 12:25:36;;;;;;;0.50;0.50;;;31.90;38.00;;;;;;6276737;22;20031;-74
2022/08/13 12:28:13;;;;;;;0.32;0.32;;;31.90;37.90;;;;;;6275851;22;20035;-74
2022/08/13 12:30:39;;;;;;;0.40;0.40;;;32.00;37.90;;;;;;6274388;22;20037;-74
2022/08/13 12:33:06;;;;;;;0.35;0.35;;;32.00;37.80;;;;;;6276886;22;20038;-74
2022/08/13 12:35:33;;;;;;;0.40;0.40;;;31.90;37.70;;;;;;6249089;22;20008;-74
2022/08/13 12:37:58;;;;;;;0.40;0.40;;;31.90;37.80;;;;;;6275868;22;20039;-74
2022/08/13 12:40:24;;;;;;;0.30;0.30;;;31.80;37.90;;;;;;6276275;22;20057;-74
2022/08/13 12:42:50;;;;;;;0.50;0.50;;;31.80;38.00;;;;;;6248846;22;20015;-74
2022/08/13 12:45:16;;;;;;;0.40;0.40;;;31.70;38.00;;;;;;6275859;22;20035;-74
2022/08/13 12:47:44;;;;;;;0.30;0.30;;;31.70;38.00;;;;;;6275494;22;20004;-74
2022/08/13 12:50:10;;;;;;;0.30;0.30;;;31.70;38.00;;;;;;6275357;22;20008;-74
2022/08/13 12:52:37;;;;;;;0.47;0.47;;;31.70;37.90;;;;;;6275630;22;20056;-74
2022/08/13 12:55:04;;;;;;;0.30;0.30;;;31.60;37.80;;;;;;6275939;22;20008;-74
2022/08/13 12:57:30;;;;;;;0.30;0.30;;;31.50;37.90;;;;;;6276180;22;20015;-74
2022/08/13 12:59:56;;;;;;;0.40;0.40;;;31.40;37.90;;;;;;6276244;22;20030;-74
2022/08/13 13:02:22;;;;;;;0.30;0.30;;;31.40;37.90;;;;;;6276438;22;20424;-74
2022/08/13 13:04:48;;;;;;;0.40;0.40;;;31.40;37.90;;;;;;6276032;22;20019;-74
2022/08/13 13:07:14;;;;;;;0.40;0.40;;;31.50;37.80;;;;;;6276443;22;20007;-74
2022/08/13 13:09:40;;;;;;;0.40;0.40;;;31.50;37.70;;;;;;6276193;22;20011;-74
2022/08/13 13:12:06;;;;;;;0.43;0.43;;;31.50;37.70;;;;;;6272860;22;20018;-74